Time;durP1;ratioP1;P1;durP2;ratioP2;P2;SDS_P1;SDS_P2;PMS_P1;PMS_P2;Temp;Humidity;BMP_temperature;BMP_pressure;BME280_temperature;BME280_humidity;BME280_pressure;Samples;Min_cycle;Max_cycle;Signal;HPM_P1;HPM_P2
2022/01/21 00:00:15;;;;;;;5.05;3.03;;;;;;;-0.95;99.04;98324.97;5050248;28;20045;-85
2022/01/21 00:02:42;;;;;;;4.53;2.70;;;;;;;-0.93;98.93;98330.91;5032426;28;20041;-85
2022/01/21 00:05:08;;;;;;;6.72;3.17;;;;;;;-0.91;98.69;98327.94;5015904;28;20069;-85
2022/01/21 00:07:33;;;;;;;4.03;2.53;;;;;;;-0.92;99.13;98329.00;5025161;28;20037;-83
2022/01/21 00:09:59;;;;;;;5.30;2.85;;;;;;;-0.93;98.98;98330.91;5039298;28;20069;-84
2022/01/21 00:12:28;;;;;;;4.38;2.83;;;;;;;-0.91;99.19;98333.31;5033859;28;20095;-84
2022/01/21 00:14:53;;;;;;;4.55;3.00;;;;;;;-0.92;98.79;98334.41;5046082;28;20064;-84
2022/01/21 00:17:21;;;;;;;6.97;3.40;;;;;;;-0.93;98.91;98325.50;5034060;28;20504;-84
2022/01/21 00:19:49;;;;;;;5.60;2.92;;;;;;;-0.92;98.94;98331.72;5033830;28;20099;-83
2022/01/21 00:30:27;;;;;;;6.45;3.20;;;;;;;-0.94;98.69;98328.47;5022890;28;20067;-84
2022/01/21 00:32:52;;;;;;;4.90;3.05;;;;;;;-0.95;98.81;98333.03;5024265;28;20033;-83
2022/01/21 00:35:20;;;;;;;6.15;3.20;;;;;;;-0.94;99.14;98323.91;5025946;28;20053;-83
2022/01/21 00:37:48;;;;;;;3.78;2.60;;;;;;;-0.92;98.81;98331.72;5025504;28;20641;-83
2022/01/21 00:40:19;;;;;;;4.40;2.63;;;;;;;-0.90;98.44;98334.94;5021282;28;20048;-83
2022/01/21 00:42:53;;;;;;;4.43;2.78;;;;;;;-0.91;98.83;98339.50;5005912;28;20096;-83
2022/01/21 00:45:20;;;;;;;7.05;2.92;;;;;;;-0.91;98.70;98339.50;5035801;28;20029;-83
2022/01/21 00:47:46;;;;;;;5.05;3.00;;;;;;;-0.91;99.08;98344.09;5028011;28;20038;-83
2022/01/21 00:50:14;;;;;;;6.85;2.72;;;;;;;-0.93;98.58;98347.06;5042507;28;20088;-83
2022/01/21 00:52:40;;;;;;;4.35;2.50;;;;;;;-0.95;98.97;98343.00;5029585;28;20037;-83
2022/01/21 00:55:07;;;;;;;6.05;2.65;;;;;;;-0.97;98.58;98335.19;5075229;28;20393;-84
2022/01/21 00:57:33;;;;;;;3.95;2.35;;;;;;;-0.97;98.57;98351.34;5033002;28;20065;-83
2022/01/21 01:00:00;;;;;;;4.85;2.47;;;;;;;-0.98;98.73;98343.53;5023446;28;20056;-83
2022/01/21 01:02:26;;;;;;;4.72;2.30;;;;;;;-0.99;98.62;98342.72;5036995;28;20037;-83
2022/01/21 01:04:51;;;;;;;4.18;2.65;;;;;;;-0.99;98.72;98337.34;5040202;28;20049;-85
2022/01/21 01:07:19;;;;;;;3.88;2.50;;;;;;;-0.98;98.35;98347.03;5030544;28;20492;-85
2022/01/21 01:09:51;;;;;;;4.78;2.20;;;;;;;-0.99;98.62;98340.03;5035467;28;20060;-83
2022/01/21 01:12:27;;;;;;;3.80;2.53;;;;;;;-0.99;98.63;98342.72;5029910;28;20044;-83
2022/01/21 01:20:21;;;;;;;4.30;2.35;;;;;;;-0.97;98.15;98351.34;5020430;28;20052;-84
2022/01/21 01:22:54;;;;;;;4.15;2.30;;;;;;;-0.96;98.16;98357.53;5034092;28;20033;-83
2022/01/21 01:28:05;;;;;;;4.25;2.67;;;;;;;-1.00;98.13;98362.63;5024943;28;20042;-84
2022/01/21 01:30:33;;;;;;;4.85;2.92;;;;;;;-1.00;97.66;98357.25;5001667;28;20033;-84
2022/01/21 01:33:01;;;;;;;4.30;2.67;;;;;;;-1.00;98.06;98370.72;5021758;28;20064;-83
2022/01/21 01:35:31;;;;;;;4.68;3.03;;;;;;;-0.99;97.88;98358.88;5020994;28;20045;-83
2022/01/21 01:40:40;;;;;;;4.70;2.30;;;;;;;-0.99;97.66;98364.25;5020297;28;20423;-83
2022/01/21 01:50:51;;;;;;;6.88;2.45;;;;;;;-0.95;97.46;98381.50;5038061;28;20428;-83
2022/01/21 01:53:19;;;;;;;5.72;2.72;;;;;;;-0.94;97.22;98385.81;5060631;28;20042;-83
2022/01/21 01:55:45;;;;;;;3.30;2.25;;;;;;;-0.96;96.95;98395.22;5034439;28;20169;-83
2022/01/21 01:58:12;;;;;;;5.32;2.78;;;;;;;-0.96;97.07;98393.34;5034090;28;20043;-83
2022/01/21 02:00:39;;;;;;;6.28;2.70;;;;;;;-0.95;97.08;98392.25;5029344;28;20041;-83
2022/01/21 02:03:10;;;;;;;3.75;2.33;;;;;;;-0.95;96.67;98402.22;5028025;28;20034;-83
2022/01/21 02:05:36;;;;;;;6.80;2.83;;;;;;;-0.94;97.16;98404.66;5041720;28;20515;-83
2022/01/21 02:08:03;;;;;;;4.95;2.42;;;;;;;-0.91;96.97;98398.75;5012990;28;20132;-83
2022/01/21 02:10:34;;;;;;;3.70;2.25;;;;;;;-0.88;96.94;98399.28;5031901;28;20068;-83
2022/01/21 02:13:18;;;;;;;4.00;2.38;;;;;;;-0.89;96.65;98394.97;5031140;28;20037;-83
2022/01/21 02:16:09;;;;;;;5.45;2.60;;;;;;;-0.94;96.19;98393.88;5031984;28;20041;-83
2022/01/21 02:21:45;;;;;;;4.35;2.30;;;;;;;-0.97;95.51;98410.56;5032395;28;20041;-84
2022/01/21 02:24:13;;;;;;;4.80;2.05;;;;;;;-0.97;95.93;98405.19;5019787;28;20037;-85
2022/01/21 02:26:39;;;;;;;3.37;2.17;;;;;;;-0.99;95.77;98396.56;5021384;28;20025;-84
2022/01/21 02:29:06;;;;;;;3.40;2.08;;;;;;;-1.00;95.29;98394.94;5030086;28;20040;-85
2022/01/21 02:31:33;;;;;;;5.00;2.40;;;;;;;-1.02;95.49;98391.69;5024353;28;20034;-85
2022/01/21 02:33:59;;;;;;;3.28;2.42;;;;;;;-1.01;95.32;98396.00;5032102;28;20132;-85
2022/01/21 02:36:25;;;;;;;4.45;2.10;;;;;;;-1.02;95.72;98388.19;5039438;28;20127;-85
2022/01/21 02:38:51;;;;;;;3.20;2.10;;;;;;;-1.04;95.51;98391.16;5018071;28;20041;-85
2022/01/21 02:41:22;;;;;;;5.40;2.40;;;;;;;-1.05;95.91;98392.19;5025937;28;20074;-85
2022/01/21 02:43:49;;;;;;;3.65;2.17;;;;;;;-1.03;95.61;98403.53;5039494;28;20088;-85
2022/01/21 02:46:16;;;;;;;4.38;2.67;;;;;;;-1.02;95.49;98397.09;5051758;28;20033;-85
2022/01/21 02:48:43;;;;;;;3.38;2.28;;;;;;;-1.01;95.57;98412.16;5037844;28;20041;-85
2022/01/21 02:51:13;;;;;;;3.83;2.70;;;;;;;-0.99;95.89;98407.31;5030532;28;20033;-84
2022/01/21 02:56:11;;;;;;;4.93;2.85;;;;;;;-0.97;95.97;98405.19;5025344;28;20033;-84
2022/01/21 02:58:37;;;;;;;4.38;2.65;;;;;;;-0.97;95.92;98415.94;5006430;28;20042;-85
2022/01/21 03:01:04;;;;;;;4.15;2.58;;;;;;;-0.95;96.31;98407.59;5049530;28;20487;-85
2022/01/21 03:03:30;;;;;;;4.65;3.22;;;;;;;-0.92;96.23;98407.91;5026515;28;20832;-85
2022/01/21 03:05:56;;;;;;;4.38;2.70;;;;;;;-0.95;96.48;98416.50;5026031;28;20044;-85
2022/01/21 03:08:23;;;;;;;4.68;2.80;;;;;;;-0.98;96.45;98414.31;5025279;28;20518;-84
2022/01/21 03:10:49;;;;;;;4.68;2.83;;;;;;;-0.98;96.17;98419.72;5021859;28;20034;-84
2022/01/21 03:13:15;;;;;;;5.32;3.28;;;;;;;-0.95;96.72;98421.06;5005999;28;20492;-84
2022/01/21 03:15:41;;;;;;;5.13;3.30;;;;;;;-0.93;96.69;98425.13;5026903;28;20042;-85
2022/01/21 03:18:07;;;;;;;5.35;3.22;;;;;;;-0.94;96.59;98428.06;5023613;28;20136;-84
2022/01/21 03:20:33;;;;;;;7.40;3.50;;;;;;;-0.97;96.84;98432.09;5008924;28;20305;-85
2022/01/21 03:23:00;;;;;;;6.00;3.20;;;;;;;-0.99;97.09;98434.25;5029158;28;20114;-84
2022/01/21 03:25:27;;;;;;;6.80;3.47;;;;;;;-1.01;96.57;98436.38;5023885;28;20037;-85
2022/01/21 03:27:53;;;;;;;7.00;3.55;;;;;;;-0.96;96.89;98436.41;5007424;28;20083;-85
2022/01/21 03:30:19;;;;;;;5.55;3.10;;;;;;;-0.96;96.91;98443.69;5007605;28;20066;-85
2022/01/21 03:32:52;;;;;;;5.53;3.28;;;;;;;-0.93;96.93;98452.03;5019042;28;20144;-85
2022/01/21 03:35:19;;;;;;;6.82;3.45;;;;;;;-0.94;96.66;98450.41;5062114;28;20048;-86
2022/01/21 03:37:44;;;;;;;5.57;3.80;;;;;;;-0.92;96.77;98450.16;4997424;28;20046;-85
2022/01/21 03:40:11;;;;;;;5.72;3.58;;;;;;;-0.91;97.04;98457.16;5020016;28;20566;-85
2022/01/21 03:42:37;;;;;;;4.18;3.10;;;;;;;-0.88;97.27;98462.00;5026979;28;20041;-85
2022/01/21 03:45:03;;;;;;;6.72;3.17;;;;;;;-0.89;97.55;98464.97;5051734;28;20037;-85
2022/01/21 03:47:29;;;;;;;7.25;3.70;;;;;;;-0.88;97.31;98474.66;5014358;28;20060;-85
2022/01/21 03:49:59;;;;;;;4.63;3.25;;;;;;;-0.92;97.23;98471.69;5040194;28;20163;-85
2022/01/21 03:52:24;;;;;;;4.00;2.88;;;;;;;-0.94;97.63;98477.34;5038388;28;20045;-84
2022/01/21 03:54:50;;;;;;;6.82;3.40;;;;;;;-0.95;97.10;98478.41;5029576;28;20051;-84
2022/01/21 03:57:34;;;;;;;4.28;3.15;;;;;;;-0.94;97.68;98482.72;5035878;28;20045;-84
2022/01/21 04:00:00;;;;;;;5.63;3.03;;;;;;;-0.93;97.67;98472.75;5042294;28;20041;-84
2022/01/21 04:02:26;;;;;;;4.57;3.03;;;;;;;-0.93;97.27;98475.44;5030357;28;20037;-85
2022/01/21 04:04:51;;;;;;;7.15;3.78;;;;;;;-0.92;97.74;98488.66;5039333;28;20044;-84
2022/01/21 04:07:17;;;;;;;7.55;3.55;;;;;;;-0.93;97.63;98484.34;5030371;28;20045;-85
2022/01/21 04:09:43;;;;;;;5.22;3.10;;;;;;;-0.95;97.55;98483.78;5016369;28;20124;-84
2022/01/21 04:12:09;;;;;;;6.20;3.28;;;;;;;-0.95;97.85;98489.19;5043526;28;20121;-85
2022/01/21 04:14:36;;;;;;;6.65;3.78;;;;;;;-0.98;97.76;98500.47;5030789;28;20044;-82
2022/01/21 04:17:02;;;;;;;5.65;3.10;;;;;;;-1.08;97.70;98500.38;5030739;28;20037;-81
2022/01/21 04:19:28;;;;;;;4.68;3.05;;;;;;;-1.16;97.69;98508.94;5079462;28;20064;-82
2022/01/21 04:21:55;;;;;;;5.72;3.55;;;;;;;-1.22;97.97;98505.38;5033741;28;20029;-80
2022/01/21 04:24:21;;;;;;;7.95;3.58;;;;;;;-1.20;97.78;98501.66;5030896;28;20038;-80
2022/01/21 04:26:47;;;;;;;6.72;3.53;;;;;;;-1.17;97.77;98503.81;5027331;28;20396;-81
2022/01/21 04:29:13;;;;;;;4.80;3.47;;;;;;;-1.13;97.74;98505.72;5033315;28;20130;-80
2022/01/21 04:31:50;;;;;;;6.93;3.65;;;;;;;-1.12;98.29;98510.03;5023252;28;20091;-83
2022/01/21 04:34:18;;;;;;;4.55;3.17;;;;;;;-1.12;98.20;98515.44;5035134;28;20061;-79
2022/01/21 04:36:44;;;;;;;5.28;3.10;;;;;;;-1.12;98.04;98515.44;5006681;28;20065;-87
2022/01/21 04:39:17;;;;;;;5.38;3.40;;;;;;;-1.14;97.98;98522.94;5050214;28;20428;-85
2022/01/21 04:49:40;;;;;;;6.50;3.20;;;;;;;-1.23;98.43;98546.00;5025562;28;20123;-81
2022/01/21 04:52:07;;;;;;;6.90;3.47;;;;;;;-1.26;98.30;98547.31;5017334;28;20030;-81
2022/01/21 04:54:46;;;;;;;6.10;3.13;;;;;;;-1.26;98.24;98552.72;5010078;28;20042;-81
2022/01/21 04:57:12;;;;;;;5.10;3.25;;;;;;;-1.28;98.17;98554.03;4993399;28;20034;-81
2022/01/21 04:59:38;;;;;;;8.38;3.70;;;;;;;-1.32;98.39;98551.03;5010994;28;20057;-81
2022/01/21 05:02:05;;;;;;;8.18;3.67;;;;;;;-1.31;98.15;98560.75;4994012;28;20053;-81
2022/01/21 05:04:31;;;;;;;6.38;4.07;;;;;;;-1.36;97.95;98559.88;5043236;28;20037;-81
2022/01/21 05:06:57;;;;;;;5.32;3.63;;;;;;;-1.37;97.83;98563.66;5010141;28;20065;-81
2022/01/21 05:09:29;;;;;;;6.85;3.80;;;;;;;-1.36;98.01;98560.69;5010237;28;20505;-81
2022/01/21 05:11:56;;;;;;;6.88;3.63;;;;;;;-1.35;98.15;98565.00;5010101;28;20114;-81
2022/01/21 05:14:39;;;;;;;6.47;3.95;;;;;;;-1.32;97.92;98563.69;5028694;28;20037;-81
2022/01/21 05:17:06;;;;;;;6.15;3.70;;;;;;;-1.32;97.90;98566.38;5029855;28;20042;-81
2022/01/21 05:19:33;;;;;;;5.03;3.38;;;;;;;-1.31;97.92;98568.81;5013064;28;20182;-81
2022/01/21 05:22:17;;;;;;;5.07;3.55;;;;;;;-1.31;97.77;98576.88;5030915;28;20037;-81
2022/01/21 05:24:46;;;;;;;5.18;3.53;;;;;;;-1.33;98.19;98575.53;5009208;28;20156;-81
2022/01/21 05:27:17;;;;;;;4.78;3.72;;;;;;;-1.34;98.16;98584.66;5010725;28;20080;-81
2022/01/21 05:29:48;;;;;;;4.65;3.53;;;;;;;-1.34;98.14;98585.47;5042429;28;20053;-81
2022/01/21 05:32:32;;;;;;;5.93;3.10;;;;;;;-1.37;97.90;98588.69;5037702;28;20717;-81
2022/01/21 05:35:09;;;;;;;6.80;3.83;;;;;;;-1.38;97.71;98589.75;5026237;28;20049;-81
2022/01/21 05:37:53;;;;;;;5.93;4.22;;;;;;;-1.38;98.23;98587.06;5012141;28;20389;-81
2022/01/21 05:40:20;;;;;;;4.03;3.10;;;;;;;-1.41;98.06;98589.41;5011003;28;20049;-81
2022/01/21 05:43:06;;;;;;;5.53;3.33;;;;;;;-1.46;97.55;98584.00;5010821;28;20184;-81
2022/01/21 05:48:49;;;;;;;6.65;3.53;;;;;;;-1.42;97.89;98604.75;5016475;28;20041;-81
2022/01/21 05:51:53;;;;;;;5.97;4.00;;;;;;;-1.40;97.82;98604.47;5036113;28;20049;-81
2022/01/21 05:54:46;;;;;;;6.40;4.20;;;;;;;-1.43;97.74;98600.44;5017962;28;20061;-81
2022/01/21 05:57:31;;;;;;;6.38;3.53;;;;;;;-1.44;97.65;98598.81;5023588;28;20030;-81
2022/01/21 05:59:58;;;;;;;6.75;3.85;;;;;;;-1.42;97.80;98604.75;5029389;28;20060;-81
2022/01/21 06:02:23;;;;;;;5.45;3.75;;;;;;;-1.42;97.85;98610.13;5031927;28;20038;-81
2022/01/21 06:04:50;;;;;;;6.43;4.75;;;;;;;-1.42;97.80;98606.63;5016575;28;20096;-81
2022/01/21 06:07:17;;;;;;;7.85;4.07;;;;;;;-1.43;97.83;98615.75;5033287;28;20034;-81
2022/01/21 06:09:44;;;;;;;7.32;4.32;;;;;;;-1.48;97.54;98610.31;5000598;28;20141;-81
2022/01/21 06:12:10;;;;;;;8.10;4.28;;;;;;;-1.47;97.78;98615.44;5032907;28;20030;-81
2022/01/21 06:14:37;;;;;;;6.18;3.78;;;;;;;-1.48;97.37;98607.63;5032358;28;20045;-81
2022/01/21 06:17:03;;;;;;;7.10;4.13;;;;;;;-1.48;97.47;98613.00;5066043;28;20045;-81
2022/01/21 06:19:29;;;;;;;9.30;4.65;;;;;;;-1.52;97.63;98618.09;5033663;28;20049;-81
2022/01/21 06:21:54;;;;;;;5.85;3.85;;;;;;;-1.57;96.83;98616.13;5033809;28;20507;-81
2022/01/21 06:24:20;;;;;;;7.15;3.70;;;;;;;-1.61;97.42;98620.41;5033967;28;20122;-81
2022/01/21 06:26:46;;;;;;;8.43;4.20;;;;;;;-1.64;97.31;98620.91;5032387;28;20037;-81
2022/01/21 06:29:11;;;;;;;6.20;4.00;;;;;;;-1.69;96.86;98620.88;5033289;28;20091;-81
2022/01/21 06:31:37;;;;;;;8.13;3.83;;;;;;;-1.70;96.77;98623.81;5032297;28;20141;-80
2022/01/21 06:34:03;;;;;;;7.15;3.65;;;;;;;-1.73;96.76;98629.69;5032565;28;20037;-81
2022/01/21 06:36:28;;;;;;;5.63;3.35;;;;;;;-1.72;96.45;98628.63;5032373;28;20040;-80
2022/01/21 06:38:54;;;;;;;4.82;3.35;;;;;;;-1.76;96.30;98635.53;5034009;28;20049;-82
2022/01/21 06:41:20;;;;;;;4.65;3.05;;;;;;;-1.79;96.42;98631.47;5032921;28;20045;-81
2022/01/21 06:43:46;;;;;;;6.13;3.40;;;;;;;-1.84;96.27;98632.22;5032312;28;20037;-81
2022/01/21 06:46:12;;;;;;;5.53;3.40;;;;;;;-1.86;96.46;98644.31;5033279;28;20045;-81
2022/01/21 06:48:38;;;;;;;4.82;3.05;;;;;;;-1.89;96.23;98639.44;5033185;28;20095;-80
2022/01/21 06:51:03;;;;;;;8.10;4.60;;;;;;;-1.92;95.85;98640.72;5015913;28;20492;-81
2022/01/21 06:53:29;;;;;;;6.10;2.92;;;;;;;-1.95;95.69;98654.66;5033406;28;20122;-82
2022/01/21 06:55:54;;;;;;;4.40;3.30;;;;;;;-1.96;95.91;98649.53;5032275;28;20580;-81
2022/01/21 06:58:20;;;;;;;5.85;3.40;;;;;;;-1.93;95.84;98662.47;5033148;28;20504;-82
2022/01/21 07:00:46;;;;;;;5.72;3.30;;;;;;;-1.94;95.43;98658.97;5033009;28;20045;-81
2022/01/21 07:03:11;;;;;;;6.05;3.20;;;;;;;-1.94;96.00;98660.84;5033427;28;20041;-82
2022/01/21 07:05:37;;;;;;;8.13;3.20;;;;;;;-1.91;95.33;98668.41;5032766;28;20069;-81
2022/01/21 07:08:04;;;;;;;7.25;3.30;;;;;;;-1.84;95.32;98664.50;5031927;28;20059;-81
2022/01/21 07:10:30;;;;;;;8.43;3.30;;;;;;;-1.82;95.34;98664.25;5031787;28;20091;-82
2022/01/21 07:12:57;;;;;;;6.63;3.45;;;;;;;-1.75;95.62;98662.16;5032563;28;20045;-82
2022/01/21 07:15:22;;;;;;;6.53;3.33;;;;;;;-1.70;95.76;98667.63;5030572;28;20128;-81
2022/01/21 07:17:52;;;;;;;5.88;3.63;;;;;;;-1.65;95.51;98673.06;5031151;28;20124;-80
2022/01/21 07:20:18;;;;;;;5.35;3.25;;;;;;;-1.63;95.49;98665.56;5031508;28;20056;-81
2022/01/21 07:22:44;;;;;;;4.50;2.95;;;;;;;-1.61;95.50;98671.50;5031584;28;20037;-80
2022/01/21 07:25:09;;;;;;;6.57;3.38;;;;;;;-1.60;95.70;98673.13;5033037;28;20092;-81
2022/01/21 07:27:35;;;;;;;6.45;3.47;;;;;;;-1.57;95.46;98669.13;5031366;28;20563;-81
2022/01/21 07:30:03;;;;;;;7.63;3.50;;;;;;;-1.54;95.43;98695.53;5015197;28;20048;-81
2022/01/21 07:32:28;;;;;;;6.57;3.63;;;;;;;-1.61;95.45;98705.66;5014924;28;20033;-82
2022/01/21 07:34:54;;;;;;;11.32;6.60;;;;;;;-1.68;94.96;98719.28;5032430;28;20179;-81
2022/01/21 07:37:19;;;;;;;12.05;7.15;;;;;;;-1.77;94.82;98712.69;5047906;28;20049;-82
2022/01/21 07:39:45;;;;;;;10.68;6.57;;;;;;;-1.84;95.38;98706.69;5032283;28;20041;-82
2022/01/21 07:42:11;;;;;;;13.73;7.13;;;;;;;-1.88;94.90;98711.75;5014872;28;20087;-81
2022/01/21 07:44:38;;;;;;;16.50;8.07;;;;;;;-1.91;94.90;98716.78;5014731;28;20037;-81
2022/01/21 07:47:05;;;;;;;8.98;6.40;;;;;;;-1.95;94.98;98726.41;5032300;28;20091;-82
2022/01/21 07:49:31;;;;;;;9.30;6.25;;;;;;;-2.00;94.90;98726.34;5031307;28;20067;-81
2022/01/21 07:51:56;;;;;;;10.80;6.68;;;;;;;-1.98;95.20;98726.91;5031293;28;20029;-82
2022/01/21 07:54:22;;;;;;;9.63;6.30;;;;;;;-1.92;95.26;98728.59;5032709;28;20594;-82
2022/01/21 07:56:47;;;;;;;10.80;6.30;;;;;;;-1.90;94.78;98723.81;5032256;28;20037;-82
2022/01/21 07:59:14;;;;;;;9.55;5.68;;;;;;;-1.91;94.85;98723.00;5030776;28;20048;-82
2022/01/21 08:01:40;;;;;;;11.07;6.53;;;;;;;-1.88;94.81;98724.38;5014305;28;20459;-82
2022/01/21 08:04:06;;;;;;;11.82;6.30;;;;;;;-1.84;94.79;98738.94;5032278;28;20541;-82
2022/01/21 08:06:33;;;;;;;9.60;6.28;;;;;;;-1.81;94.91;98725.00;5032039;28;20037;-81
2022/01/21 08:08:59;;;;;;;11.30;5.75;;;;;;;-1.74;95.17;98732.88;5030844;28;20063;-81
2022/01/21 08:11:25;;;;;;;8.18;5.57;;;;;;;-1.73;94.63;98738.03;5031750;28;20049;-81
2022/01/21 08:13:51;;;;;;;8.68;5.63;;;;;;;-1.73;94.57;98740.72;5031098;28;20064;-80
2022/01/21 08:16:17;;;;;;;17.65;6.63;;;;;;;-1.73;94.49;98737.22;5030379;28;20029;-82
2022/01/21 08:18:43;;;;;;;10.73;6.05;;;;;;;-1.74;94.54;98739.06;5030323;28;20057;-82
2022/01/21 08:21:27;;;;;;;10.02;5.68;;;;;;;-1.69;94.20;98744.53;5031005;28;20462;-81
2022/01/21 08:23:54;;;;;;;10.57;5.55;;;;;;;-1.65;93.95;98753.75;5030971;28;20475;-81
2022/01/21 08:26:23;;;;;;;10.25;6.45;;;;;;;-1.64;93.64;98755.38;5046981;28;20042;-81
2022/01/21 08:28:50;;;;;;;7.68;5.53;;;;;;;-1.65;93.58;98756.44;5031397;28;20037;-81
2022/01/21 08:31:16;;;;;;;9.07;5.57;;;;;;;-1.64;93.63;98759.94;5029033;28;20451;-81
2022/01/21 08:33:48;;;;;;;8.07;5.68;;;;;;;-1.62;93.53;98758.63;5029727;28;20650;-82
2022/01/21 08:36:13;;;;;;;10.90;6.03;;;;;;;-1.59;93.30;98760.81;5031426;28;20067;-81
2022/01/21 08:38:39;;;;;;;8.60;5.63;;;;;;;-1.59;92.99;98752.72;5029792;28;20606;-81
2022/01/21 08:41:05;;;;;;;9.25;5.00;;;;;;;-1.58;93.15;98754.34;5030269;28;20140;-82
2022/01/21 08:43:31;;;;;;;7.95;4.78;;;;;;;-1.57;92.84;98764.06;5031230;28;20029;-82
2022/01/21 08:45:56;;;;;;;8.30;4.95;;;;;;;-1.56;92.47;98775.66;5013442;28;20040;-82
2022/01/21 08:48:22;;;;;;;8.07;5.35;;;;;;;-1.61;92.52;98779.06;5031229;28;20040;-82
2022/01/21 08:50:48;;;;;;;9.23;5.03;;;;;;;-1.61;92.31;98778.25;5024508;28;20033;-82
2022/01/21 08:56:05;;;;;;;10.73;5.78;;;;;;;-1.59;92.37;98786.88;5030902;28;20462;-82
2022/01/21 08:58:30;;;;;;;10.38;5.78;;;;;;;-1.61;92.06;98781.75;5030926;28;20033;-81
2022/01/21 09:00:56;;;;;;;10.30;5.85;;;;;;;-1.71;91.73;98784.31;5013531;28;20056;-81
2022/01/21 09:03:22;;;;;;;11.02;5.60;;;;;;;-1.73;91.84;98783.75;5030079;28;20116;-82
2022/01/21 09:05:49;;;;;;;11.07;5.90;;;;;;;-1.75;91.99;98791.22;5030802;28;20551;-81
2022/01/21 09:08:15;;;;;;;10.68;6.10;;;;;;;-1.76;91.69;98794.97;5030743;28;20136;-82
2022/01/21 09:10:41;;;;;;;10.68;5.97;;;;;;;-1.74;91.78;98798.22;5029590;28;20076;-82
2022/01/21 09:13:07;;;;;;;11.30;6.22;;;;;;;-1.70;92.33;98799.38;5030726;28;20077;-82
2022/01/21 09:15:34;;;;;;;12.68;6.20;;;;;;;-1.70;91.95;98798.56;5054790;28;20489;-82
2022/01/21 09:18:04;;;;;;;11.68;5.75;;;;;;;-1.72;92.05;98790.75;5030569;28;20050;-82
2022/01/21 09:20:31;;;;;;;10.45;5.78;;;;;;;-1.65;92.47;98801.31;5013735;28;20136;-81
2022/01/21 09:22:56;;;;;;;12.20;6.35;;;;;;;-1.62;92.37;98801.66;5030610;28;20450;-81
2022/01/21 09:25:22;;;;;;;9.50;5.78;;;;;;;-1.63;92.04;98816.16;5029586;28;20592;-82
2022/01/21 09:27:48;;;;;;;11.05;5.78;;;;;;;-1.64;92.58;98809.16;5029458;28;20049;-82
2022/01/21 09:30:13;;;;;;;10.13;5.95;;;;;;;-1.63;92.24;98816.16;5030942;28;20037;-82
2022/01/21 09:32:39;;;;;;;9.50;6.10;;;;;;;-1.59;92.42;98819.97;5030517;28;20469;-82
2022/01/21 09:35:06;;;;;;;12.05;5.97;;;;;;;-1.57;92.11;98817.84;5031737;28;20111;-81
2022/01/21 09:37:32;;;;;;;12.05;6.20;;;;;;;-1.59;91.83;98825.34;5034798;28;20512;-82
2022/01/21 09:39:57;;;;;;;7.65;5.03;;;;;;;-1.63;91.99;98829.59;5034544;28;20041;-87
2022/01/21 09:42:24;;;;;;;8.45;5.18;;;;;;;-1.72;91.47;98836.47;5033574;28;20099;-82
2022/01/21 09:44:51;;;;;;;9.45;4.93;;;;;;;-1.75;91.40;98834.25;5034472;28;20041;-82
2022/01/21 09:47:18;;;;;;;8.90;4.90;;;;;;;-1.76;91.06;98838.00;5033030;28;20042;-83
2022/01/21 09:49:45;;;;;;;8.68;4.65;;;;;;;-1.75;90.99;98842.31;5034073;28;20415;-83
2022/01/21 09:52:12;;;;;;;7.90;4.75;;;;;;;-1.72;90.51;98839.16;5034794;28;20098;-83
2022/01/21 09:54:45;;;;;;;9.63;5.13;;;;;;;-1.65;90.68;98849.72;5034631;28;20064;-82
2022/01/21 09:57:16;;;;;;;12.45;5.05;;;;;;;-1.59;90.88;98857.63;5049856;28;20038;-81
2022/01/21 09:59:43;;;;;;;11.77;6.10;;;;;;;-1.63;90.63;98861.88;5034576;28;20049;-82
2022/01/21 10:02:09;;;;;;;9.07;5.22;;;;;;;-1.71;90.77;98853.41;5016926;28;20073;-80
2022/01/21 10:04:38;;;;;;;9.63;5.05;;;;;;;-1.69;90.44;98859.34;5034631;28;20047;-81
2022/01/21 10:07:05;;;;;;;8.73;4.53;;;;;;;-1.71;90.78;98856.09;5034093;28;20410;-79
2022/01/21 10:09:31;;;;;;;12.13;5.63;;;;;;;-1.72;90.68;98870.59;5034156;28;20416;-81
2022/01/21 10:11:58;;;;;;;12.27;5.43;;;;;;;-1.78;90.59;98864.31;5034062;28;20042;-79
2022/01/21 10:14:26;;;;;;;9.15;5.22;;;;;;;-1.74;90.59;98872.69;5032526;28;20041;-81
2022/01/21 10:16:53;;;;;;;8.05;4.95;;;;;;;-1.74;90.78;98878.88;5034178;28;20121;-81
2022/01/21 10:19:24;;;;;;;11.40;5.32;;;;;;;-1.75;90.22;98874.56;5016303;28;20049;-80
2022/01/21 10:21:58;;;;;;;8.50;4.47;;;;;;;-1.72;90.20;98881.34;5014108;28;20066;-80
2022/01/21 10:24:23;;;;;;;9.30;4.93;;;;;;;-1.71;90.46;98883.81;5014255;28;20061;-81
2022/01/21 10:26:51;;;;;;;6.72;4.55;;;;;;;-1.77;90.61;98883.94;5014219;28;20388;-82
2022/01/21 10:29:18;;;;;;;12.73;5.50;;;;;;;-1.81;90.62;98894.38;5025382;28;20033;-81
2022/01/21 10:32:00;;;;;;;10.35;5.10;;;;;;;-1.84;90.56;98890.31;5033157;28;20407;-80
2022/01/21 10:34:38;;;;;;;9.35;5.18;;;;;;;-1.84;90.61;98884.13;5033505;28;20065;-83
2022/01/21 10:37:24;;;;;;;7.80;4.73;;;;;;;-1.84;90.51;98878.75;5032803;28;20052;-86
2022/01/21 10:39:59;;;;;;;9.43;5.20;;;;;;;-1.82;90.93;98882.00;5032721;28;20041;-84
2022/01/21 10:42:26;;;;;;;8.48;4.30;;;;;;;-1.85;90.63;98882.50;5033195;28;20408;-90
2022/01/21 10:44:52;;;;;;;8.40;4.70;;;;;;;-1.89;90.80;98884.03;5020944;28;20037;-90
2022/01/21 10:47:18;;;;;;;7.80;4.72;;;;;;;-1.89;90.20;98884.03;5041120;28;20048;-93
2022/01/21 10:50:11;;;;;;;9.57;5.30;;;;;;;-1.83;90.36;98891.13;5009244;28;20047;-88
2022/01/21 10:52:43;;;;;;;7.93;4.45;;;;;;;-1.77;90.71;98892.81;5053241;28;20140;-84
2022/01/21 10:55:32;;;;;;;11.73;5.45;;;;;;;-1.74;91.02;98886.97;5035868;28;20032;-86
2022/01/21 10:58:07;;;;;;;;;;;;;;;-1.71;90.92;98899.94;5034894;28;20412;-87
2022/01/21 11:00:34;;;;;;;9.60;5.47;;;;;;;-1.74;91.06;98900.41;5027733;28;20420;-88
2022/01/21 11:03:11;;;;;;;7.97;4.93;;;;;;;-1.71;90.63;98899.13;4999535;28;20393;-86
2022/01/21 11:05:44;;;;;;;13.98;4.88;;;;;;;-1.70;91.20;98900.75;5030419;28;20061;-84
2022/01/21 11:08:12;;;;;;;9.30;5.65;;;;;;;-1.67;90.95;98901.06;5042933;28;20120;-85
2022/01/21 11:11:05;;;;;;;12.52;5.97;;;;;;;-1.68;90.85;98898.63;5043764;28;20065;-85
2022/01/21 11:13:33;;;;;;;9.85;5.80;;;;;;;-1.76;90.53;98910.59;5037355;28;20103;-86
2022/01/21 11:16:08;;;;;;;10.98;6.28;;;;;;;-1.80;90.73;98916.69;5050602;28;20066;-84
2022/01/21 11:18:48;;;;;;;10.35;5.38;;;;;;;-1.82;90.66;98925.00;5047451;28;20527;-85
2022/01/21 11:21:13;;;;;;;7.55;4.57;;;;;;;-1.84;90.57;98919.06;5037407;28;20042;-85
2022/01/21 11:23:39;;;;;;;10.30;5.30;;;;;;;-1.86;90.32;98923.88;5017229;28;20088;-89
2022/01/21 11:26:09;;;;;;;8.75;5.25;;;;;;;-1.85;90.56;98926.31;5025336;28;20042;-89
2022/01/21 11:28:42;;;;;;;8.52;4.85;;;;;;;-1.88;90.42;98909.88;5030421;28;20069;-84
2022/01/21 11:31:09;;;;;;;11.55;4.90;;;;;;;-1.87;90.49;98927.63;5044420;28;20521;-86
2022/01/21 11:33:35;;;;;;;8.70;5.50;;;;;;;-1.89;90.83;98927.06;5045864;28;21437;-85
2022/01/21 11:36:01;;;;;;;8.85;5.00;;;;;;;-1.95;90.39;98931.50;5035674;28;20042;-86
2022/01/21 11:38:28;;;;;;;8.43;5.03;;;;;;;-1.98;90.11;98934.69;5037724;28;20048;-85
2022/01/21 11:40:54;;;;;;;8.52;6.03;;;;;;;-2.02;90.36;98930.03;5037186;28;20033;-84
2022/01/21 11:43:20;;;;;;;8.57;5.13;;;;;;;-2.01;89.99;98934.34;5042701;28;20041;-84
2022/01/21 11:48:51;;;;;;;8.95;4.97;;;;;;;-2.00;90.00;98939.47;5012231;28;20096;-89
2022/01/21 11:51:43;;;;;;;11.30;5.72;;;;;;;-2.00;90.47;98936.78;5033974;28;20037;-85
2022/01/21 11:54:11;;;;;;;10.25;5.65;;;;;;;-1.99;90.41;98940.28;5042471;28;20085;-86
2022/01/21 11:56:39;;;;;;;15.02;5.88;;;;;;;-1.95;90.79;98949.50;5030860;28;20160;-86
2022/01/21 11:59:08;;;;;;;7.45;4.00;;;;;;;-1.90;91.24;98963.06;5033769;28;20450;-84
2022/01/21 12:01:47;;;;;;;12.85;6.50;;;;;;;-1.87;90.83;98962.56;5031647;28;20095;-83
2022/01/21 12:04:13;;;;;;;;;;;;;;;-1.88;91.03;98964.44;5035662;28;20404;-84
2022/01/21 12:06:39;;;;;;;4.38;1.63;;;;;;;-1.86;91.15;98966.88;5030654;28;20023;-86
2022/01/21 12:09:05;;;;;;;13.63;5.85;;;;;;;-1.84;91.23;98972.84;5041385;28;20041;-87
2022/01/21 12:11:32;;;;;;;12.93;5.95;;;;;;;-1.86;91.64;98981.13;5036531;28;20403;-87
2022/01/21 12:13:58;;;;;;;12.15;4.32;;;;;;;-1.87;91.55;98986.75;5033131;28;20041;-89
2022/01/21 12:16:52;;;;;;;9.48;4.55;;;;;;;-1.95;91.92;98987.13;5027850;28;20040;-84
2022/01/21 12:19:28;;;;;;;11.32;5.43;;;;;;;-2.04;91.98;98996.66;5063102;28;20060;-82
2022/01/21 12:21:54;;;;;;;10.18;5.10;;;;;;;-2.07;92.29;98991.75;5030228;28;20060;-82
2022/01/21 12:24:44;;;;;;;9.77;5.65;;;;;;;-2.17;92.03;99009.28;5039479;28;20128;-79
2022/01/21 12:27:13;;;;;;;7.88;3.50;;;;;;;-2.23;92.79;99015.63;5026992;28;20512;-79